Aeroporto :
LOGIN :

Iscrizione | Disclaimer

   EN    FR    IT 

 










Sommario :    VFR   VFR Marginale   IFR   IFR Intensivo   IFR Molto Intensivo
Visibilità : 
Base nubi : 
>= 8 km
>= 3000ft
5 / 8 km
1000 / 3000 ft
1500m / 5 km
500 / 1000 ft
800 / 1500m
200 / 500 ft
< 800m
< 200 ft
Simboli :   Temporali  Nebbia  Neve Forte  Precipitazioni Forti  Vento > 20 kt
SIGMETs :   Varie  Temporali  Ghiacco  Turbolenza  Onda orograficha  Ceneri Vulcaniche






- Altitudine del aeroporto : 32 ft
- Codice IATA : LKZ


EGUL - RAF Lakenheath

ULTIMO METAR :
  • 170711Z 20006KT 3200 BR OVC004 13/11 A2995 RMK AO2A CIG 002V004 SLP146 $

METARs OBSOLETI :
  • 170656Z 20004KT 2400 BR OVC003 13/11 A2995 RMK AO2A SLP146 T01310108 $
  • 170638Z AUTO 20005KT 5000 HZ OVC002 13/11 A2994 RMK AO2 CIG 001 RWY06 SLP142 $
  • 170609Z AUTO 19004KT 1000 R24/1100VP1500 HZ VV001 13/10 A2994 RMK AO2 CIG 000 RWY06 SLP142 $
  • 170556Z 18004KT 0400 R24/1000V1100 FG VV001 13/10 A2994 RMK AO2A CIG 000 RWY06 SLP142 T01260103 10158 20114 55004 $
  • 170531Z 19003KT 0800 FG OVC003 12/10 A2994 RMK AO2A VIS 2000V4400 VIS 0400 RWY06 CIG 002 RWY06 SLP142 $
  • 170520Z 20005KT 0800 FG BKN004 12/10 A2994 RMK VIS 2000 RWY06 CIG 002 RWY06 SLP142 57006 $
  • 170456Z 18003KT 6000 BR SCT006 12/10 A2994 RMK AO2A SLP142 T01200099 $

TAF AMD TAF EGUL
Valido dal 17 a 05 ore il 18 a 11 ore UTC


170547Z 1705/1811 20006KT 3200 BR FEW006 SCT040 BKN200 QNH2994INS
TEMPO 1705/1708 0400 FG BKN003 BKN015
TEMPO 1708/1711 6000 BKN010 BKN020
BECMG 1710/1711 22012KT 9999 NSW SCT025 BKN050 QNH2997INS
TEMPO 1711/1714 BKN020
BECMG 1717/1718 20009KT 9999 SCT050 QNH2992INS
BECMG 1721/1722 20006KT 8000 BR SCT040 BKN200 QNH2995INS
BECMG 1802/1803 18006KT 5000 BR SCT004 BKN200 QNH2995INS
TEMPO 1805/1808 3200 BR BKN004
BECMG 1810/1811 18012KT 9999 NSW FEW015 SCT050 QNH2997INS TX20/1715Z TN12/1705Z



MetMap, La meteo Aeronautica in un colpo d'occhio ! - Copyright ORBIFLY Dicembre 2007 - Disclaimer

ORBIFLY MET'MAP TEAM :

Programmazione e sviluppo : Alexandra Zaïnal
Concezione : Baudouin d'Aumeries
Aiuto per la programmazione : Marc-Olivier Méhu
Supporto tecnico e logistico : Manuel Goepfert
Aiuto per la traduzione : Arnaldo La Scala

Contatto : metmap@orbifly.com




FONTI E CREDITI :

   NOAA